sensor_id;sensor_type;location;lat;lon;timestamp;P1;durP1;ratioP1;P2;durP2;ratioP2
25299;SDS011;13241;51.208;4.432;2023-06-10T00:02:23;10.40;;;5.05;;
25299;SDS011;13241;51.208;4.432;2023-06-10T00:04:50;7.85;;;5.45;;
25299;SDS011;13241;51.208;4.432;2023-06-10T00:07:17;7.15;;;4.90;;
25299;SDS011;13241;51.208;4.432;2023-06-10T00:09:44;6.80;;;4.85;;
25299;SDS011;13241;51.208;4.432;2023-06-10T00:12:11;18.77;;;5.30;;
25299;SDS011;13241;51.208;4.432;2023-06-10T00:14:39;8.32;;;4.60;;
25299;SDS011;13241;51.208;4.432;2023-06-10T00:17:07;7.43;;;5.15;;
25299;SDS011;13241;51.208;4.432;2023-06-10T00:19:36;6.95;;;5.07;;
25299;SDS011;13241;51.208;4.432;2023-06-10T00:22:03;7.47;;;5.15;;
25299;SDS011;13241;51.208;4.432;2023-06-10T00:24:31;9.77;;;5.32;;
25299;SDS011;13241;51.208;4.432;2023-06-10T00:26:58;9.93;;;4.57;;
25299;SDS011;13241;51.208;4.432;2023-06-10T00:29:24;8.90;;;5.78;;
25299;SDS011;13241;51.208;4.432;2023-06-10T00:31:51;7.07;;;4.95;;
25299;SDS011;13241;51.208;4.432;2023-06-10T00:34:23;7.65;;;5.18;;
25299;SDS011;13241;51.208;4.432;2023-06-10T00:36:51;10.70;;;5.78;;
25299;SDS011;13241;51.208;4.432;2023-06-10T00:39:18;8.45;;;4.68;;
25299;SDS011;13241;51.208;4.432;2023-06-10T00:41:45;8.40;;;5.00;;
25299;SDS011;13241;51.208;4.432;2023-06-10T00:44:12;12.15;;;5.03;;
25299;SDS011;13241;51.208;4.432;2023-06-10T00:46:38;8.40;;;4.55;;
25299;SDS011;13241;51.208;4.432;2023-06-10T00:49:06;9.82;;;5.10;;
25299;SDS011;13241;51.208;4.432;2023-06-10T00:51:36;7.40;;;5.00;;
25299;SDS011;13241;51.208;4.432;2023-06-10T00:54:03;8.52;;;4.93;;
25299;SDS011;13241;51.208;4.432;2023-06-10T00:56:31;7.60;;;5.13;;
25299;SDS011;13241;51.208;4.432;2023-06-10T00:59:00;7.50;;;5.15;;
25299;SDS011;13241;51.208;4.432;2023-06-10T01:01:28;14.05;;;6.22;;
25299;SDS011;13241;51.208;4.432;2023-06-10T01:03:56;6.47;;;4.90;;
25299;SDS011;13241;51.208;4.432;2023-06-10T01:06:29;12.82;;;5.32;;
25299;SDS011;13241;51.208;4.432;2023-06-10T01:11:45;7.57;;;5.10;;
25299;SDS011;13241;51.208;4.432;2023-06-10T01:14:16;9.55;;;4.95;;
25299;SDS011;13241;51.208;4.432;2023-06-10T01:16:43;6.72;;;5.05;;
25299;SDS011;13241;51.208;4.432;2023-06-10T01:19:12;6.75;;;4.85;;
25299;SDS011;13241;51.208;4.432;2023-06-10T01:21:43;6.25;;;4.80;;
25299;SDS011;13241;51.208;4.432;2023-06-10T01:24:17;8.00;;;5.28;;
25299;SDS011;13241;51.208;4.432;2023-06-10T01:26:45;9.48;;;5.32;;
25299;SDS011;13241;51.208;4.432;2023-06-10T01:32:04;10.45;;;5.30;;
25299;SDS011;13241;51.208;4.432;2023-06-10T01:34:38;6.97;;;4.93;;
25299;SDS011;13241;51.208;4.432;2023-06-10T01:37:09;9.95;;;6.13;;
25299;SDS011;13241;51.208;4.432;2023-06-10T01:39:42;6.10;;;4.60;;
25299;SDS011;13241;51.208;4.432;2023-06-10T01:42:09;9.30;;;5.50;;
25299;SDS011;13241;51.208;4.432;2023-06-10T01:44:38;14.05;;;5.00;;
25299;SDS011;13241;51.208;4.432;2023-06-10T01:47:07;10.82;;;5.40;;
25299;SDS011;13241;51.208;4.432;2023-06-10T01:49:35;8.75;;;5.40;;
25299;SDS011;13241;51.208;4.432;2023-06-10T01:52:02;10.13;;;5.05;;
25299;SDS011;13241;51.208;4.432;2023-06-10T01:54:32;11.27;;;6.00;;
25299;SDS011;13241;51.208;4.432;2023-06-10T01:57:01;7.50;;;5.28;;
25299;SDS011;13241;51.208;4.432;2023-06-10T01:59:28;10.88;;;5.22;;
25299;SDS011;13241;51.208;4.432;2023-06-10T02:01:55;8.57;;;5.20;;
25299;SDS011;13241;51.208;4.432;2023-06-10T02:04:22;8.07;;;4.88;;
25299;SDS011;13241;51.208;4.432;2023-06-10T02:06:49;13.27;;;5.88;;
25299;SDS011;13241;51.208;4.432;2023-06-10T02:09:16;9.35;;;5.43;;
25299;SDS011;13241;51.208;4.432;2023-06-10T02:11:45;10.77;;;5.85;;
25299;SDS011;13241;51.208;4.432;2023-06-10T02:14:12;10.55;;;6.65;;
25299;SDS011;13241;51.208;4.432;2023-06-10T02:16:39;7.43;;;5.28;;
25299;SDS011;13241;51.208;4.432;2023-06-10T02:19:06;10.70;;;6.18;;
25299;SDS011;13241;51.208;4.432;2023-06-10T02:21:33;8.27;;;5.35;;
25299;SDS011;13241;51.208;4.432;2023-06-10T02:24:02;8.68;;;5.72;;
25299;SDS011;13241;51.208;4.432;2023-06-10T02:26:30;10.63;;;5.05;;
25299;SDS011;13241;51.208;4.432;2023-06-10T02:28:59;12.63;;;6.20;;
25299;SDS011;13241;51.208;4.432;2023-06-10T02:31:27;8.40;;;4.97;;
25299;SDS011;13241;51.208;4.432;2023-06-10T02:33:55;9.65;;;5.40;;
25299;SDS011;13241;51.208;4.432;2023-06-10T02:36:23;10.05;;;5.80;;
25299;SDS011;13241;51.208;4.432;2023-06-10T02:38:50;11.02;;;6.20;;
25299;SDS011;13241;51.208;4.432;2023-06-10T02:41:17;9.77;;;5.88;;
25299;SDS011;13241;51.208;4.432;2023-06-10T02:43:45;10.52;;;5.78;;
25299;SDS011;13241;51.208;4.432;2023-06-10T02:46:13;14.07;;;5.97;;
25299;SDS011;13241;51.208;4.432;2023-06-10T02:48:42;10.88;;;6.22;;
25299;SDS011;13241;51.208;4.432;2023-06-10T02:51:18;8.93;;;6.03;;
25299;SDS011;13241;51.208;4.432;2023-06-10T02:53:47;14.00;;;5.85;;
25299;SDS011;13241;51.208;4.432;2023-06-10T02:56:16;11.60;;;5.63;;
25299;SDS011;13241;51.208;4.432;2023-06-10T02:58:43;6.28;;;5.10;;
25299;SDS011;13241;51.208;4.432;2023-06-10T03:01:12;7.80;;;5.90;;
25299;SDS011;13241;51.208;4.432;2023-06-10T03:03:50;12.80;;;6.38;;
25299;SDS011;13241;51.208;4.432;2023-06-10T03:06:18;7.68;;;5.65;;
25299;SDS011;13241;51.208;4.432;2023-06-10T03:08:46;8.13;;;5.53;;
25299;SDS011;13241;51.208;4.432;2023-06-10T03:11:16;8.75;;;5.68;;
25299;SDS011;13241;51.208;4.432;2023-06-10T03:13:43;9.25;;;5.28;;
25299;SDS011;13241;51.208;4.432;2023-06-10T03:16:13;10.75;;;5.55;;
25299;SDS011;13241;51.208;4.432;2023-06-10T03:18:40;10.80;;;5.50;;
25299;SDS011;13241;51.208;4.432;2023-06-10T03:21:08;10.30;;;6.03;;
25299;SDS011;13241;51.208;4.432;2023-06-10T03:23:35;9.65;;;5.78;;
25299;SDS011;13241;51.208;4.432;2023-06-10T03:26:03;11.38;;;5.88;;
25299;SDS011;13241;51.208;4.432;2023-06-10T03:28:32;12.00;;;6.05;;
25299;SDS011;13241;51.208;4.432;2023-06-10T03:30:59;8.05;;;5.32;;
25299;SDS011;13241;51.208;4.432;2023-06-10T03:33:29;8.23;;;5.65;;
25299;SDS011;13241;51.208;4.432;2023-06-10T03:35:56;9.93;;;5.75;;
25299;SDS011;13241;51.208;4.432;2023-06-10T03:38:23;7.85;;;5.80;;
25299;SDS011;13241;51.208;4.432;2023-06-10T03:40:50;12.95;;;6.05;;
25299;SDS011;13241;51.208;4.432;2023-06-10T03:43:17;12.15;;;6.32;;
25299;SDS011;13241;51.208;4.432;2023-06-10T03:45:44;9.93;;;6.45;;
25299;SDS011;13241;51.208;4.432;2023-06-10T03:48:11;10.77;;;5.88;;
25299;SDS011;13241;51.208;4.432;2023-06-10T03:50:46;13.40;;;6.05;;
25299;SDS011;13241;51.208;4.432;2023-06-10T03:53:14;8.77;;;5.88;;
25299;SDS011;13241;51.208;4.432;2023-06-10T03:55:42;8.63;;;5.75;;
25299;SDS011;13241;51.208;4.432;2023-06-10T03:58:09;8.10;;;6.22;;
25299;SDS011;13241;51.208;4.432;2023-06-10T04:00:39;9.73;;;6.35;;
25299;SDS011;13241;51.208;4.432;2023-06-10T04:03:08;11.45;;;6.20;;
25299;SDS011;13241;51.208;4.432;2023-06-10T04:05:40;11.67;;;6.17;;
25299;SDS011;13241;51.208;4.432;2023-06-10T04:08:08;30.52;;;5.68;;
25299;SDS011;13241;51.208;4.432;2023-06-10T04:10:35;9.48;;;6.20;;
25299;SDS011;13241;51.208;4.432;2023-06-10T04:13:02;8.43;;;5.68;;
25299;SDS011;13241;51.208;4.432;2023-06-10T04:15:34;10.38;;;6.13;;
25299;SDS011;13241;51.208;4.432;2023-06-10T04:18:07;11.05;;;6.22;;
25299;SDS011;13241;51.208;4.432;2023-06-10T04:20:34;8.20;;;6.20;;
25299;SDS011;13241;51.208;4.432;2023-06-10T04:23:01;8.82;;;5.88;;
25299;SDS011;13241;51.208;4.432;2023-06-10T04:25:29;12.48;;;6.10;;
25299;SDS011;13241;51.208;4.432;2023-06-10T04:27:56;10.35;;;6.22;;
25299;SDS011;13241;51.208;4.432;2023-06-10T04:30:24;12.70;;;6.60;;
25299;SDS011;13241;51.208;4.432;2023-06-10T04:32:51;7.50;;;5.53;;
25299;SDS011;13241;51.208;4.432;2023-06-10T04:35:18;9.20;;;6.47;;
25299;SDS011;13241;51.208;4.432;2023-06-10T04:37:47;12.60;;;6.35;;
25299;SDS011;13241;51.208;4.432;2023-06-10T04:40:15;15.32;;;6.60;;
25299;SDS011;13241;51.208;4.432;2023-06-10T04:42:42;13.70;;;6.55;;
25299;SDS011;13241;51.208;4.432;2023-06-10T04:45:09;10.68;;;6.07;;
25299;SDS011;13241;51.208;4.432;2023-06-10T04:47:37;9.55;;;5.97;;
25299;SDS011;13241;51.208;4.432;2023-06-10T04:50:05;7.47;;;5.38;;
25299;SDS011;13241;51.208;4.432;2023-06-10T04:52:32;10.40;;;6.65;;
25299;SDS011;13241;51.208;4.432;2023-06-10T04:55:00;10.98;;;5.53;;
25299;SDS011;13241;51.208;4.432;2023-06-10T04:57:27;15.07;;;6.05;;
25299;SDS011;13241;51.208;4.432;2023-06-10T04:59:54;11.05;;;5.97;;
25299;SDS011;13241;51.208;4.432;2023-06-10T05:02:21;10.13;;;5.93;;
25299;SDS011;13241;51.208;4.432;2023-06-10T05:04:48;9.40;;;5.50;;
25299;SDS011;13241;51.208;4.432;2023-06-10T05:07:15;9.68;;;5.78;;
25299;SDS011;13241;51.208;4.432;2023-06-10T05:09:42;9.32;;;6.30;;
25299;SDS011;13241;51.208;4.432;2023-06-10T05:12:09;11.45;;;6.15;;
25299;SDS011;13241;51.208;4.432;2023-06-10T05:14:36;9.80;;;6.45;;
25299;SDS011;13241;51.208;4.432;2023-06-10T05:17:03;9.77;;;6.45;;
25299;SDS011;13241;51.208;4.432;2023-06-10T05:19:32;11.80;;;5.72;;
25299;SDS011;13241;51.208;4.432;2023-06-10T05:21:59;10.68;;;6.55;;
25299;SDS011;13241;51.208;4.432;2023-06-10T05:24:26;12.43;;;6.47;;
25299;SDS011;13241;51.208;4.432;2023-06-10T05:26:52;10.57;;;6.20;;
25299;SDS011;13241;51.208;4.432;2023-06-10T05:29:19;10.82;;;6.75;;
25299;SDS011;13241;51.208;4.432;2023-06-10T05:31:46;9.38;;;6.28;;
25299;SDS011;13241;51.208;4.432;2023-06-10T05:34:13;6.93;;;5.35;;
25299;SDS011;13241;51.208;4.432;2023-06-10T05:36:40;13.45;;;7.15;;
25299;SDS011;13241;51.208;4.432;2023-06-10T05:39:08;11.43;;;6.38;;
25299;SDS011;13241;51.208;4.432;2023-06-10T05:41:36;17.77;;;7.05;;
25299;SDS011;13241;51.208;4.432;2023-06-10T05:44:03;12.75;;;5.32;;
25299;SDS011;13241;51.208;4.432;2023-06-10T05:46:30;14.43;;;6.93;;
25299;SDS011;13241;51.208;4.432;2023-06-10T05:48:57;13.32;;;6.60;;
25299;SDS011;13241;51.208;4.432;2023-06-10T05:51:24;9.77;;;5.70;;
25299;SDS011;13241;51.208;4.432;2023-06-10T05:53:51;8.45;;;5.85;;
25299;SDS011;13241;51.208;4.432;2023-06-10T05:56:18;13.27;;;6.75;;
25299;SDS011;13241;51.208;4.432;2023-06-10T05:58:46;11.00;;;5.80;;
25299;SDS011;13241;51.208;4.432;2023-06-10T06:01:13;10.27;;;6.65;;
25299;SDS011;13241;51.208;4.432;2023-06-10T06:03:40;15.18;;;6.60;;
25299;SDS011;13241;51.208;4.432;2023-06-10T06:06:07;10.07;;;6.43;;
25299;SDS011;13241;51.208;4.432;2023-06-10T06:08:34;9.88;;;6.70;;
25299;SDS011;13241;51.208;4.432;2023-06-10T06:11:01;10.43;;;6.70;;
25299;SDS011;13241;51.208;4.432;2023-06-10T06:13:28;10.80;;;6.50;;
25299;SDS011;13241;51.208;4.432;2023-06-10T06:15:55;15.07;;;6.30;;
25299;SDS011;13241;51.208;4.432;2023-06-10T06:18:22;13.65;;;6.78;;
25299;SDS011;13241;51.208;4.432;2023-06-10T06:20:49;12.95;;;6.55;;
25299;SDS011;13241;51.208;4.432;2023-06-10T06:23:16;8.93;;;5.85;;
25299;SDS011;13241;51.208;4.432;2023-06-10T06:25:43;15.05;;;6.85;;
25299;SDS011;13241;51.208;4.432;2023-06-10T06:28:10;8.02;;;6.00;;
25299;SDS011;13241;51.208;4.432;2023-06-10T06:30:38;12.45;;;5.70;;
25299;SDS011;13241;51.208;4.432;2023-06-10T06:33:04;19.60;;;6.22;;
25299;SDS011;13241;51.208;4.432;2023-06-10T06:35:32;12.27;;;6.35;;
25299;SDS011;13241;51.208;4.432;2023-06-10T06:38:00;13.50;;;6.00;;
25299;SDS011;13241;51.208;4.432;2023-06-10T06:40:28;10.75;;;6.30;;
25299;SDS011;13241;51.208;4.432;2023-06-10T06:42:55;13.20;;;5.60;;
25299;SDS011;13241;51.208;4.432;2023-06-10T06:45:36;8.40;;;5.43;;
25299;SDS011;13241;51.208;4.432;2023-06-10T06:48:03;11.00;;;6.00;;
25299;SDS011;13241;51.208;4.432;2023-06-10T06:50:32;12.45;;;6.57;;
25299;SDS011;13241;51.208;4.432;2023-06-10T06:52:58;9.15;;;6.03;;
25299;SDS011;13241;51.208;4.432;2023-06-10T06:55:25;10.40;;;6.25;;
25299;SDS011;13241;51.208;4.432;2023-06-10T06:57:52;7.28;;;5.53;;
25299;SDS011;13241;51.208;4.432;2023-06-10T07:00:20;9.10;;;5.65;;
25299;SDS011;13241;51.208;4.432;2023-06-10T07:02:47;9.55;;;6.18;;
25299;SDS011;13241;51.208;4.432;2023-06-10T07:05:14;9.77;;;5.80;;
25299;SDS011;13241;51.208;4.432;2023-06-10T07:07:42;8.10;;;5.55;;
25299;SDS011;13241;51.208;4.432;2023-06-10T07:10:09;10.15;;;5.43;;
25299;SDS011;13241;51.208;4.432;2023-06-10T07:12:37;8.93;;;6.03;;
25299;SDS011;13241;51.208;4.432;2023-06-10T07:15:04;8.70;;;5.43;;
25299;SDS011;13241;51.208;4.432;2023-06-10T07:17:32;11.88;;;6.00;;
25299;SDS011;13241;51.208;4.432;2023-06-10T07:20:01;11.05;;;5.78;;
25299;SDS011;13241;51.208;4.432;2023-06-10T07:22:28;14.73;;;5.72;;
25299;SDS011;13241;51.208;4.432;2023-06-10T07:24:56;8.93;;;5.75;;
25299;SDS011;13241;51.208;4.432;2023-06-10T07:27:23;9.70;;;5.55;;
25299;SDS011;13241;51.208;4.432;2023-06-10T07:29:51;8.15;;;5.40;;
25299;SDS011;13241;51.208;4.432;2023-06-10T07:32:18;7.55;;;4.97;;
25299;SDS011;13241;51.208;4.432;2023-06-10T07:34:49;8.70;;;5.38;;
25299;SDS011;13241;51.208;4.432;2023-06-10T07:37:16;10.95;;;5.32;;
25299;SDS011;13241;51.208;4.432;2023-06-10T07:39:43;13.48;;;5.38;;
25299;SDS011;13241;51.208;4.432;2023-06-10T07:42:11;9.88;;;5.45;;
25299;SDS011;13241;51.208;4.432;2023-06-10T07:44:38;8.52;;;5.57;;
25299;SDS011;13241;51.208;4.432;2023-06-10T07:47:04;15.23;;;6.32;;
25299;SDS011;13241;51.208;4.432;2023-06-10T07:49:31;9.88;;;5.90;;
25299;SDS011;13241;51.208;4.432;2023-06-10T07:51:59;10.82;;;5.45;;
25299;SDS011;13241;51.208;4.432;2023-06-10T07:54:26;11.43;;;5.25;;
25299;SDS011;13241;51.208;4.432;2023-06-10T07:56:55;11.30;;;5.45;;
25299;SDS011;13241;51.208;4.432;2023-06-10T07:59:22;11.82;;;5.32;;
25299;SDS011;13241;51.208;4.432;2023-06-10T08:01:51;9.70;;;5.45;;
25299;SDS011;13241;51.208;4.432;2023-06-10T08:04:18;12.80;;;5.25;;
25299;SDS011;13241;51.208;4.432;2023-06-10T08:06:46;9.98;;;5.25;;
25299;SDS011;13241;51.208;4.432;2023-06-10T08:09:13;7.45;;;5.18;;
25299;SDS011;13241;51.208;4.432;2023-06-10T08:11:40;10.00;;;5.07;;
25299;SDS011;13241;51.208;4.432;2023-06-10T08:14:07;7.90;;;5.30;;
25299;SDS011;13241;51.208;4.432;2023-06-10T08:16:34;7.32;;;5.07;;
25299;SDS011;13241;51.208;4.432;2023-06-10T08:19:01;7.28;;;4.90;;
25299;SDS011;13241;51.208;4.432;2023-06-10T08:21:30;12.95;;;5.40;;
25299;SDS011;13241;51.208;4.432;2023-06-10T08:23:57;9.13;;;4.72;;
25299;SDS011;13241;51.208;4.432;2023-06-10T08:26:24;8.85;;;5.50;;
25299;SDS011;13241;51.208;4.432;2023-06-10T08:28:51;7.72;;;5.00;;
25299;SDS011;13241;51.208;4.432;2023-06-10T08:31:18;11.38;;;6.18;;
25299;SDS011;13241;51.208;4.432;2023-06-10T08:33:45;8.10;;;5.40;;
25299;SDS011;13241;51.208;4.432;2023-06-10T08:36:12;9.63;;;5.22;;
25299;SDS011;13241;51.208;4.432;2023-06-10T08:38:39;8.23;;;4.47;;
25299;SDS011;13241;51.208;4.432;2023-06-10T08:41:06;6.63;;;4.50;;
25299;SDS011;13241;51.208;4.432;2023-06-10T08:43:42;6.82;;;4.35;;
25299;SDS011;13241;51.208;4.432;2023-06-10T08:46:12;6.47;;;4.35;;
25299;SDS011;13241;51.208;4.432;2023-06-10T08:48:42;7.25;;;4.28;;
25299;SDS011;13241;51.208;4.432;2023-06-10T08:51:11;6.78;;;5.00;;
25299;SDS011;13241;51.208;4.432;2023-06-10T08:53:41;7.90;;;4.82;;
25299;SDS011;13241;51.208;4.432;2023-06-10T08:56:20;11.95;;;5.63;;
25299;SDS011;13241;51.208;4.432;2023-06-10T08:58:52;10.93;;;5.18;;
25299;SDS011;13241;51.208;4.432;2023-06-10T09:01:19;9.38;;;5.35;;
25299;SDS011;13241;51.208;4.432;2023-06-10T09:03:47;11.48;;;4.70;;
25299;SDS011;13241;51.208;4.432;2023-06-10T09:06:14;7.15;;;4.53;;
25299;SDS011;13241;51.208;4.432;2023-06-10T09:08:42;6.82;;;4.63;;
25299;SDS011;13241;51.208;4.432;2023-06-10T09:11:09;6.47;;;4.43;;
25299;SDS011;13241;51.208;4.432;2023-06-10T09:13:37;11.65;;;5.03;;
25299;SDS011;13241;51.208;4.432;2023-06-10T09:16:05;18.63;;;5.80;;
25299;SDS011;13241;51.208;4.432;2023-06-10T09:18:32;6.55;;;4.90;;
25299;SDS011;13241;51.208;4.432;2023-06-10T09:21:01;8.13;;;4.75;;
25299;SDS011;13241;51.208;4.432;2023-06-10T09:23:28;9.10;;;4.55;;
25299;SDS011;13241;51.208;4.432;2023-06-10T09:25:56;8.07;;;4.90;;
25299;SDS011;13241;51.208;4.432;2023-06-10T09:28:26;8.25;;;4.78;;
25299;SDS011;13241;51.208;4.432;2023-06-10T09:31:03;9.52;;;5.43;;
25299;SDS011;13241;51.208;4.432;2023-06-10T09:33:38;8.18;;;5.40;;
25299;SDS011;13241;51.208;4.432;2023-06-10T09:36:06;7.95;;;5.38;;
25299;SDS011;13241;51.208;4.432;2023-06-10T09:38:33;7.05;;;4.57;;
25299;SDS011;13241;51.208;4.432;2023-06-10T09:41:02;9.35;;;4.88;;
25299;SDS011;13241;51.208;4.432;2023-06-10T09:46:06;5.75;;;4.03;;
25299;SDS011;13241;51.208;4.432;2023-06-10T09:51:18;11.32;;;4.65;;
25299;SDS011;13241;51.208;4.432;2023-06-10T09:53:51;6.50;;;4.60;;
25299;SDS011;13241;51.208;4.432;2023-06-10T09:56:19;6.70;;;4.60;;
25299;SDS011;13241;51.208;4.432;2023-06-10T09:58:47;6.63;;;4.45;;
25299;SDS011;13241;51.208;4.432;2023-06-10T10:01:14;9.35;;;4.70;;
25299;SDS011;13241;51.208;4.432;2023-06-10T10:03:49;23.35;;;5.00;;
25299;SDS011;13241;51.208;4.432;2023-06-10T10:06:17;5.93;;;4.45;;
25299;SDS011;13241;51.208;4.432;2023-06-10T10:08:46;11.05;;;5.45;;
25299;SDS011;13241;51.208;4.432;2023-06-10T10:11:19;5.97;;;4.00;;
25299;SDS011;13241;51.208;4.432;2023-06-10T10:13:50;10.60;;;4.90;;
25299;SDS011;13241;51.208;4.432;2023-06-10T10:16:22;5.53;;;4.43;;
25299;SDS011;13241;51.208;4.432;2023-06-10T10:19:11;6.30;;;4.45;;
25299;SDS011;13241;51.208;4.432;2023-06-10T10:22:17;10.82;;;4.75;;
25299;SDS011;13241;51.208;4.432;2023-06-10T10:24:51;9.20;;;4.88;;
25299;SDS011;13241;51.208;4.432;2023-06-10T10:27:27;5.53;;;4.10;;
25299;SDS011;13241;51.208;4.432;2023-06-10T10:29:59;10.50;;;4.25;;
25299;SDS011;13241;51.208;4.432;2023-06-10T10:32:35;5.72;;;4.47;;
25299;SDS011;13241;51.208;4.432;2023-06-10T10:35:16;7.82;;;4.50;;
25299;SDS011;13241;51.208;4.432;2023-06-10T10:37:45;7.75;;;4.40;;
25299;SDS011;13241;51.208;4.432;2023-06-10T10:40:13;8.40;;;4.82;;
25299;SDS011;13241;51.208;4.432;2023-06-10T10:42:41;8.48;;;4.70;;
25299;SDS011;13241;51.208;4.432;2023-06-10T10:45:09;7.90;;;4.28;;
25299;SDS011;13241;51.208;4.432;2023-06-10T10:47:37;7.38;;;4.53;;
25299;SDS011;13241;51.208;4.432;2023-06-10T10:50:15;8.48;;;4.30;;
25299;SDS011;13241;51.208;4.432;2023-06-10T10:55:20;4.47;;;3.65;;
25299;SDS011;13241;51.208;4.432;2023-06-10T10:57:54;7.70;;;4.78;;
25299;SDS011;13241;51.208;4.432;2023-06-10T11:00:32;6.57;;;4.57;;
25299;SDS011;13241;51.208;4.432;2023-06-10T11:05:48;8.02;;;4.00;;
25299;SDS011;13241;51.208;4.432;2023-06-10T11:10:58;7.05;;;4.25;;
25299;SDS011;13241;51.208;4.432;2023-06-10T11:13:26;5.85;;;3.90;;
25299;SDS011;13241;51.208;4.432;2023-06-10T11:15:56;6.25;;;4.22;;
25299;SDS011;13241;51.208;4.432;2023-06-10T11:18:34;15.68;;;4.00;;
25299;SDS011;13241;51.208;4.432;2023-06-10T11:21:05;18.08;;;3.97;;
25299;SDS011;13241;51.208;4.432;2023-06-10T11:23:34;7.82;;;4.20;;
25299;SDS011;13241;51.208;4.432;2023-06-10T11:26:11;9.50;;;4.00;;
25299;SDS011;13241;51.208;4.432;2023-06-10T11:28:38;10.02;;;4.75;;
25299;SDS011;13241;51.208;4.432;2023-06-10T11:31:26;6.93;;;3.75;;
25299;SDS011;13241;51.208;4.432;2023-06-10T11:34:05;8.25;;;4.00;;
25299;SDS011;13241;51.208;4.432;2023-06-10T11:36:33;10.90;;;4.43;;
25299;SDS011;13241;51.208;4.432;2023-06-10T11:39:03;6.95;;;4.15;;
25299;SDS011;13241;51.208;4.432;2023-06-10T11:41:32;7.03;;;4.47;;
25299;SDS011;13241;51.208;4.432;2023-06-10T11:44:03;5.85;;;4.57;;
25299;SDS011;13241;51.208;4.432;2023-06-10T11:49:01;6.22;;;4.38;;
25299;SDS011;13241;51.208;4.432;2023-06-10T11:51:31;6.88;;;4.60;;
25299;SDS011;13241;51.208;4.432;2023-06-10T11:54:00;8.93;;;5.47;;
25299;SDS011;13241;51.208;4.432;2023-06-10T11:56:28;5.28;;;3.80;;
25299;SDS011;13241;51.208;4.432;2023-06-10T12:01:31;7.32;;;4.80;;
25299;SDS011;13241;51.208;4.432;2023-06-10T12:04:07;10.10;;;5.07;;
25299;SDS011;13241;51.208;4.432;2023-06-10T12:06:40;7.03;;;4.75;;
25299;SDS011;13241;51.208;4.432;2023-06-10T12:09:17;8.30;;;4.40;;
25299;SDS011;13241;51.208;4.432;2023-06-10T12:20:05;7.38;;;4.63;;
25299;SDS011;13241;51.208;4.432;2023-06-10T12:22:40;6.13;;;4.22;;
25299;SDS011;13241;51.208;4.432;2023-06-10T12:25:09;6.68;;;4.45;;
25299;SDS011;13241;51.208;4.432;2023-06-10T12:27:38;5.55;;;4.15;;
25299;SDS011;13241;51.208;4.432;2023-06-10T12:30:07;5.85;;;4.40;;
25299;SDS011;13241;51.208;4.432;2023-06-10T12:32:44;7.10;;;4.13;;
25299;SDS011;13241;51.208;4.432;2023-06-10T12:35:12;9.50;;;4.05;;
25299;SDS011;13241;51.208;4.432;2023-06-10T12:38:00;7.45;;;4.28;;
25299;SDS011;13241;51.208;4.432;2023-06-10T12:40:30;6.93;;;4.40;;
25299;SDS011;13241;51.208;4.432;2023-06-10T12:42:59;8.65;;;4.53;;
25299;SDS011;13241;51.208;4.432;2023-06-10T12:45:27;8.30;;;4.15;;
25299;SDS011;13241;51.208;4.432;2023-06-10T12:50:40;5.15;;;4.22;;
25299;SDS011;13241;51.208;4.432;2023-06-10T12:53:08;8.60;;;4.22;;
25299;SDS011;13241;51.208;4.432;2023-06-10T12:55:36;7.10;;;4.35;;
25299;SDS011;13241;51.208;4.432;2023-06-10T12:58:03;9.80;;;4.15;;
25299;SDS011;13241;51.208;4.432;2023-06-10T13:00:30;6.82;;;4.32;;
25299;SDS011;13241;51.208;4.432;2023-06-10T13:02:59;5.63;;;4.32;;
25299;SDS011;13241;51.208;4.432;2023-06-10T13:05:28;6.63;;;4.50;;
25299;SDS011;13241;51.208;4.432;2023-06-10T13:07:56;8.35;;;3.60;;
25299;SDS011;13241;51.208;4.432;2023-06-10T13:10:25;10.05;;;4.25;;
25299;SDS011;13241;51.208;4.432;2023-06-10T13:12:55;10.70;;;4.28;;
25299;SDS011;13241;51.208;4.432;2023-06-10T13:15:22;7.85;;;3.88;;
25299;SDS011;13241;51.208;4.432;2023-06-10T13:17:49;5.90;;;3.85;;
25299;SDS011;13241;51.208;4.432;2023-06-10T13:20:17;10.88;;;4.22;;
25299;SDS011;13241;51.208;4.432;2023-06-10T13:22:45;5.60;;;4.10;;
25299;SDS011;13241;51.208;4.432;2023-06-10T13:25:14;5.43;;;3.97;;
25299;SDS011;13241;51.208;4.432;2023-06-10T13:27:42;4.97;;;4.15;;
25299;SDS011;13241;51.208;4.432;2023-06-10T13:30:09;6.18;;;3.88;;
25299;SDS011;13241;51.208;4.432;2023-06-10T13:32:37;7.38;;;4.25;;
25299;SDS011;13241;51.208;4.432;2023-06-10T13:35:06;5.97;;;4.20;;
25299;SDS011;13241;51.208;4.432;2023-06-10T13:37:34;5.47;;;3.63;;
25299;SDS011;13241;51.208;4.432;2023-06-10T13:40:01;5.22;;;3.65;;
25299;SDS011;13241;51.208;4.432;2023-06-10T13:42:29;7.50;;;4.18;;
25299;SDS011;13241;51.208;4.432;2023-06-10T13:44:56;14.65;;;4.15;;
25299;SDS011;13241;51.208;4.432;2023-06-10T13:47:23;7.97;;;4.05;;
25299;SDS011;13241;51.208;4.432;2023-06-10T13:49:51;8.45;;;3.78;;
25299;SDS011;13241;51.208;4.432;2023-06-10T13:52:18;12.65;;;4.65;;
25299;SDS011;13241;51.208;4.432;2023-06-10T13:54:46;9.60;;;4.18;;
25299;SDS011;13241;51.208;4.432;2023-06-10T13:57:13;8.40;;;4.45;;
25299;SDS011;13241;51.208;4.432;2023-06-10T13:59:40;6.03;;;3.90;;
25299;SDS011;13241;51.208;4.432;2023-06-10T14:02:08;4.82;;;3.78;;
25299;SDS011;13241;51.208;4.432;2023-06-10T14:04:35;7.25;;;3.85;;
25299;SDS011;13241;51.208;4.432;2023-06-10T14:07:02;5.50;;;4.00;;
25299;SDS011;13241;51.208;4.432;2023-06-10T14:09:29;13.13;;;4.80;;
25299;SDS011;13241;51.208;4.432;2023-06-10T14:11:57;11.30;;;4.32;;
25299;SDS011;13241;51.208;4.432;2023-06-10T14:14:24;5.18;;;4.00;;
25299;SDS011;13241;51.208;4.432;2023-06-10T14:16:51;5.85;;;3.83;;
25299;SDS011;13241;51.208;4.432;2023-06-10T14:19:18;5.72;;;4.13;;
25299;SDS011;13241;51.208;4.432;2023-06-10T14:21:45;4.68;;;3.60;;
25299;SDS011;13241;51.208;4.432;2023-06-10T14:24:13;5.18;;;3.90;;
25299;SDS011;13241;51.208;4.432;2023-06-10T14:26:40;6.13;;;3.92;;
25299;SDS011;13241;51.208;4.432;2023-06-10T14:29:07;6.68;;;4.20;;
25299;SDS011;13241;51.208;4.432;2023-06-10T14:31:35;7.78;;;4.15;;
25299;SDS011;13241;51.208;4.432;2023-06-10T14:34:02;7.13;;;4.05;;
25299;SDS011;13241;51.208;4.432;2023-06-10T14:36:29;6.43;;;4.30;;
25299;SDS011;13241;51.208;4.432;2023-06-10T14:38:56;7.88;;;3.83;;
25299;SDS011;13241;51.208;4.432;2023-06-10T14:41:23;6.25;;;3.75;;
25299;SDS011;13241;51.208;4.432;2023-06-10T14:43:51;7.63;;;4.65;;
25299;SDS011;13241;51.208;4.432;2023-06-10T14:46:18;5.78;;;4.35;;
25299;SDS011;13241;51.208;4.432;2023-06-10T14:48:47;6.28;;;4.35;;
25299;SDS011;13241;51.208;4.432;2023-06-10T14:51:16;6.35;;;4.30;;
25299;SDS011;13241;51.208;4.432;2023-06-10T14:53:42;9.40;;;3.95;;
25299;SDS011;13241;51.208;4.432;2023-06-10T14:56:09;18.27;;;4.70;;
25299;SDS011;13241;51.208;4.432;2023-06-10T14:58:36;9.45;;;3.80;;
25299;SDS011;13241;51.208;4.432;2023-06-10T15:01:03;6.60;;;3.50;;
25299;SDS011;13241;51.208;4.432;2023-06-10T15:03:31;6.13;;;3.75;;
25299;SDS011;13241;51.208;4.432;2023-06-10T15:05:58;4.63;;;3.67;;
25299;SDS011;13241;51.208;4.432;2023-06-10T15:08:26;10.20;;;4.00;;
25299;SDS011;13241;51.208;4.432;2023-06-10T15:10:56;5.55;;;3.70;;
25299;SDS011;13241;51.208;4.432;2023-06-10T15:13:23;8.60;;;3.85;;
25299;SDS011;13241;51.208;4.432;2023-06-10T15:15:50;5.47;;;3.88;;
25299;SDS011;13241;51.208;4.432;2023-06-10T15:18:17;5.88;;;3.70;;
25299;SDS011;13241;51.208;4.432;2023-06-10T15:20:44;10.57;;;3.80;;
25299;SDS011;13241;51.208;4.432;2023-06-10T15:23:11;9.57;;;3.97;;
25299;SDS011;13241;51.208;4.432;2023-06-10T15:25:38;7.75;;;3.42;;
25299;SDS011;13241;51.208;4.432;2023-06-10T15:28:07;5.18;;;3.92;;